Ternholm — OWIM2 — position and weather

sailwx.info

Track history (hours):
 
Tides and Currents Weather Stations Pressure Air Temp Water Temp Dewpoint Dewpoint Depression Visibility Wind Speed Wind Dir Waves Ship Positions

Ternholm

Last reported at 2016-Aug-24 11:33 UTC. Time now 2016-Aug-24 12:03 UTC.
Position N 59°12' E 005°21'.

Length 141 m; draft 7.3 m.

Type: Tanker. MMSI: 219076000.

Date/timePositionNaut miles runAvg speedWind from/ knotsBaromVisibWave heightAir tempDewpointWater temp
2016-Aug-24 11:33N 59°12' E 005°21'8 8.4
2016-Aug-24 10:33N 59°04' E 005°18'1110.9
2016-Aug-24 09:33N 59°01' E 004°57'10 9.8
2016-Aug-24 08:33N 59°04' E 004°39'296 9.2
2016-Aug-23 00:19N 63°30' E 009°07'911.6
2016-Aug-22 23:33N 63°35' E 009°24'1010.5
2016-Aug-22 22:33N 63°38' E 009°47'1111.3
2016-Aug-22 21:33N 63°28' E 009°60'10 9.7
2016-Aug-22 20:33N 63°26' E 010°21'0 0.0
2016-Aug-22 19:31N 63°26' E 010°21'0 0.0
2016-Aug-22 18:31N 63°26' E 010°21'0 0.0
2016-Aug-22 17:31N 63°26' E 010°21'0 0.0
2016-Aug-22 16:31N 63°26' E 010°21'0 0.0
2016-Aug-22 15:31N 63°26' E 010°21'0 0.0
2016-Aug-22 14:31N 63°26' E 010°21'0 0.0
2016-Aug-22 13:31N 63°26' E 010°21'0 0.0
2016-Aug-22 12:31N 63°26' E 010°21'2 1.7
2016-Aug-22 11:33N 63°28' E 010°19'1111.3
2016-Aug-22 10:33N 63°30' E 009°54'1110.7
2016-Aug-22 09:33N 63°39' E 009°41'1311.8
2016-Aug-22 08:29N 63°33' E 009°17'311 9.4
2016-Aug-20 23:32N 58°54' E 004°31'1111.7
2016-Aug-20 22:33N 58°53' E 004°53'1111.4
2016-Aug-20 21:34N 58°52' E 005°15'9 8.6
2016-Aug-20 20:33N 58°54' E 005°32'3 2.7
2016-Aug-20 19:33N 58°56' E 005°36'0 0.0
2016-Aug-20 18:30N 58°56' E 005°36'0 0.0
2016-Aug-20 17:33N 58°56' E 005°36'0 0.0
2016-Aug-20 16:33N 58°56' E 005°36'0 0.0
2016-Aug-20 15:33N 58°56' E 005°36'0 0.0
2016-Aug-20 14:33N 58°56' E 005°36'0 0.0
2016-Aug-20 13:33N 58°56' E 005°36'0 0.0
2016-Aug-20 12:33N 58°56' E 005°36'0 0.0
2016-Aug-20 11:33N 58°56' E 005°36'0 0.0
2016-Aug-20 10:33N 58°56' E 005°36'0 0.0
2016-Aug-20 09:33N 58°56' E 005°36'1 0.5
2016-Aug-20 08:33N 58°56' E 005°35'8 7.8
2016-Aug-20 07:34N 58°50' E 005°26'1010.4
2016-Aug-20 06:33N 58°40' E 005°17'1111.3
2016-Aug-20 05:33N 58°29' E 005°15'1111.0
2016-Aug-20 04:33N 58°20' E 005°27'1211.5
2016-Aug-20 03:33N 58°13' E 005°44'1111.5
2016-Aug-20 02:33N 58°05' E 006°01'1211.5
2016-Aug-20 01:33N 57°58' E 006°17'1211.5
2016-Aug-20 00:32N 57°50' E 006°33'1111.1
2016-Aug-19 23:33N 57°47' E 006°53'1111.4
2016-Aug-19 22:33N 57°46' E 007°14'2511.3
2016-Aug-19 20:22N 57°48' E 008°00'911.4
2016-Aug-19 19:33N 57°51' E 008°17'7111.4
2016-Aug-19 13:18N 57°49' E 010°30'911.7
2016-Aug-19 12:33N 57°49' E 010°47'1111.4
2016-Aug-19 11:33N 57°44' E 011°06'1111.5
2016-Aug-19 10:34N 57°39' E 011°25'10 9.6
2016-Aug-19 09:33N 57°39' E 011°43'5 5.3
2016-Aug-19 08:33N 57°41' E 011°52'0 0.0
2016-Aug-19 07:31N 57°41' E 011°52'0 0.0
2016-Aug-19 06:31N 57°41' E 011°52'0 0.0
2016-Aug-19 05:31N 57°41' E 011°52'0 0.0
2016-Aug-19 04:31N 57°41' E 011°52'0 0.0
2016-Aug-19 03:31N 57°41' E 011°52'0 0.0
2016-Aug-19 02:31N 57°41' E 011°52'0 0.0
2016-Aug-19 01:31N 57°41' E 011°52'0 0.0
2016-Aug-19 00:31N 57°41' E 011°52'0 0.0
2016-Aug-18 23:31N 57°41' E 011°52'0 0.0
2016-Aug-18 22:31N 57°41' E 011°52'0 0.0
2016-Aug-18 21:31N 57°41' E 011°52'0 0.0
2016-Aug-18 20:31N 57°41' E 011°52'0 0.0
2016-Aug-18 19:31N 57°41' E 011°52'0 0.0
2016-Aug-18 18:31N 57°41' E 011°52'0 0.0
2016-Aug-18 17:31N 57°41' E 011°52'0 0.0
2016-Aug-18 16:31N 57°41' E 011°52'0 0.0
2016-Aug-18 15:31N 57°41' E 011°52'0 0.0
2016-Aug-18 14:31N 57°41' E 011°52'0 0.0
2016-Aug-18 13:31N 57°41' E 011°52'0 0.0
2016-Aug-18 12:31N 57°41' E 011°52'0 0.0
2016-Aug-18 11:31N 57°41' E 011°52'0 0.0
2016-Aug-18 10:31N 57°41' E 011°52'0 0.0
2016-Aug-18 09:31N 57°41' E 011°52'0 0.0
2016-Aug-18 08:34N 57°41' E 011°52'0 0.0
2016-Aug-18 07:33N 57°41' E 011°52'0 0.0
2016-Aug-18 06:33N 57°41' E 011°52'0 0.0
2016-Aug-18 05:33N 57°41' E 011°52'0 0.0
2016-Aug-18 04:33N 57°41' E 011°52'0 0.0
2016-Aug-18 03:33N 57°41' E 011°52'0 0.0
2016-Aug-18 02:33N 57°41' E 011°52'0 0.0
2016-Aug-18 01:33N 57°41' E 011°52'0 0.0
2016-Aug-18 00:33N 57°41' E 011°52'0 0.0
2016-Aug-17 23:33N 57°41' E 011°52'0 0.0
2016-Aug-17 22:33N 57°41' E 011°52'0 0.0
2016-Aug-17 21:33N 57°41' E 011°52'0 0.0
2016-Aug-17 20:33N 57°41' E 011°52'0 0.3
2016-Aug-17 19:34N 57°41' E 011°52'2 2.4
2016-Aug-17 18:33N 57°40' E 011°48'0 0.1
2016-Aug-17 17:33N 57°40' E 011°48'0 0.0
2016-Aug-17 16:33N 57°40' E 011°48'0 0.0
2016-Aug-17 15:33N 57°40' E 011°48'0 0.0
2016-Aug-17 14:33N 57°40' E 011°48'0 0.0
2016-Aug-17 13:33N 57°40' E 011°48'0 0.1
2016-Aug-17 12:33N 57°40' E 011°48'0 0.0
2016-Aug-17 11:33N 57°40' E 011°48'0 0.0
2016-Aug-17 10:33N 57°40' E 011°48'0 0.0
2016-Aug-17 09:33N 57°40' E 011°48'0 0.0
2016-Aug-17 08:33N 57°40' E 011°48'0 0.0
2016-Aug-17 07:33N 57°40' E 011°48'0 0.0
2016-Aug-17 06:33N 57°40' E 011°48'0 0.0
2016-Aug-17 05:33N 57°40' E 011°48'0 0.0
2016-Aug-17 04:33N 57°40' E 011°48'0 0.1
2016-Aug-17 03:33N 57°40' E 011°48'0 0.1
2016-Aug-17 02:33N 57°40' E 011°48'0 0.0
2016-Aug-17 01:33N 57°40' E 011°48'0 0.0
2016-Aug-17 00:33N 57°40' E 011°48'0 0.0
2016-Aug-16 23:30N 57°40' E 011°48'0 0.0
2016-Aug-16 22:33N 57°40' E 011°48'0 0.1
2016-Aug-16 21:33N 57°40' E 011°48'0 0.0
2016-Aug-16 20:32N 57°40' E 011°48'0 0.0
2016-Aug-16 19:32N 57°40' E 011°48'0 0.0
2016-Aug-16 18:32N 57°40' E 011°48'0 0.0
2016-Aug-16 17:32N 57°40' E 011°48'0 0.0
2016-Aug-16 16:32N 57°40' E 011°48'0 0.0
2016-Aug-16 15:33N 57°40' E 011°48'1 1.1
2016-Aug-16 14:33N 57°41' E 011°47'3 2.6
2016-Aug-16 13:33N 57°41' E 011°42'0 0.0
2016-Aug-16 12:33N 57°41' E 011°42'0 0.1
2016-Aug-16 11:33N 57°41' E 011°42'0 0.0
2016-Aug-16 10:33N 57°41' E 011°42'0 0.0
2016-Aug-16 09:33N 57°41' E 011°41'0 0.1
2016-Aug-16 08:33N 57°41' E 011°41'0 0.0
2016-Aug-16 07:33N 57°41' E 011°41'0 0.0
2016-Aug-16 04:33N 57°41' E 011°42'0 0.0
2016-Aug-16 03:33N 57°41' E 011°42'0 0.0
2016-Aug-16 02:33N 57°41' E 011°42'0 0.0
2016-Aug-16 01:33N 57°41' E 011°42'0 0.0
2016-Aug-16 00:30N 57°41' E 011°42'0 0.0
2016-Aug-15 23:33N 57°41' E 011°42'0 0.0
2016-Aug-15 22:33N 57°41' E 011°42'0 0.0
2016-Aug-15 21:33N 57°41' E 011°42'9 8.8
2016-Aug-15 20:33N 57°32' E 011°37'1211.8
2016-Aug-15 19:33N 57°21' E 011°36'1111.2
2016-Aug-15 18:33N 57°09' E 011°38'1111.6
2016-Aug-15 17:34N 56°59' E 011°45'1111.2
2016-Aug-15 16:33N 56°48' E 011°52'1110.9
2016-Aug-15 15:33N 56°38' E 011°46'1411.7
2016-Aug-15 14:20N 56°25' E 011°33'6410.3
2016-Aug-15 08:08N 55°24' E 011°01'610.7
2016-Aug-15 07:33N 55°18' E 011°03'1110.6
2016-Aug-15 06:34N 55°08' E 011°03'2211.1
2016-Aug-15 04:33N 54°46' E 010°53'1110.5
2016-Aug-15 03:33N 54°38' E 011°04'1111.4
2016-Aug-15 02:34N 54°33' E 011°22'1111.2
2016-Aug-15 01:33N 54°28' E 011°39'1111.2
2016-Aug-15 00:33N 54°27' E 011°58'9 9.4
2016-Aug-14 23:33N 54°31' E 012°12'10 9.8
2016-Aug-14 22:33N 54°40' E 012°21'3611.6
2016-Aug-14 19:26N 54°54' E 013°18'1011.3
2016-Aug-14 18:33N 54°58' E 013°34'1010.4
2016-Aug-14 17:33N 55°01' E 013°52'1110.7
2016-Aug-14 16:34N 55°07' E 014°08'1211.6
2016-Aug-14 15:33N 55°16' E 014°21'1111.4
2016-Aug-14 14:33N 55°25' E 014°33'1010.4
2016-Aug-14 13:34N 55°30' E 014°49'1111.5
2016-Aug-14 12:34N 55°36' E 015°06'  
Track history (hours):
 
Tides and Currents Weather Stations Pressure Air Temp Water Temp Dewpoint Dewpoint Depression Visibility Wind Speed Wind Dir Waves Ship Positions

Ternholm

Last reported at 2016-Aug-24 11:33 UTC. Time now 2016-Aug-24 12:03 UTC.
Position N 59°12' E 005°21'.

Length 141 m; draft 7.3 m.

Type: Tanker. MMSI: 219076000.

Date/timePositionNaut miles runAvg speedWind from/ knotsBaromVisibWave heightAir tempDewpointWater temp
2016-Aug-24 11:33N 59°12' E 005°21'8 8.4
2016-Aug-24 10:33N 59°04' E 005°18'1110.9
2016-Aug-24 09:33N 59°01' E 004°57'10 9.8
2016-Aug-24 08:33N 59°04' E 004°39'296 9.2
2016-Aug-23 00:19N 63°30' E 009°07'911.6
2016-Aug-22 23:33N 63°35' E 009°24'1010.5
2016-Aug-22 22:33N 63°38' E 009°47'1111.3
2016-Aug-22 21:33N 63°28' E 009°60'10 9.7
2016-Aug-22 20:33N 63°26' E 010°21'0 0.0
2016-Aug-22 19:31N 63°26' E 010°21'0 0.0
2016-Aug-22 18:31N 63°26' E 010°21'0 0.0
2016-Aug-22 17:31N 63°26' E 010°21'0 0.0
2016-Aug-22 16:31N 63°26' E 010°21'0 0.0
2016-Aug-22 15:31N 63°26' E 010°21'0 0.0
2016-Aug-22 14:31N 63°26' E 010°21'0 0.0
2016-Aug-22 13:31N 63°26' E 010°21'0 0.0
2016-Aug-22 12:31N 63°26' E 010°21'2 1.7
2016-Aug-22 11:33N 63°28' E 010°19'1111.3
2016-Aug-22 10:33N 63°30' E 009°54'1110.7
2016-Aug-22 09:33N 63°39' E 009°41'1311.8
2016-Aug-22 08:29N 63°33' E 009°17'311 9.4
2016-Aug-20 23:32N 58°54' E 004°31'1111.7
2016-Aug-20 22:33N 58°53' E 004°53'1111.4
2016-Aug-20 21:34N 58°52' E 005°15'9 8.6
2016-Aug-20 20:33N 58°54' E 005°32'3 2.7
2016-Aug-20 19:33N 58°56' E 005°36'0 0.0
2016-Aug-20 18:30N 58°56' E 005°36'0 0.0
2016-Aug-20 17:33N 58°56' E 005°36'0 0.0
2016-Aug-20 16:33N 58°56' E 005°36'0 0.0
2016-Aug-20 15:33N 58°56' E 005°36'0 0.0
2016-Aug-20 14:33N 58°56' E 005°36'0 0.0
2016-Aug-20 13:33N 58°56' E 005°36'0 0.0
2016-Aug-20 12:33N 58°56' E 005°36'0 0.0
2016-Aug-20 11:33N 58°56' E 005°36'0 0.0
2016-Aug-20 10:33N 58°56' E 005°36'0 0.0
2016-Aug-20 09:33N 58°56' E 005°36'1 0.5
2016-Aug-20 08:33N 58°56' E 005°35'8 7.8
2016-Aug-20 07:34N 58°50' E 005°26'1010.4
2016-Aug-20 06:33N 58°40' E 005°17'1111.3
2016-Aug-20 05:33N 58°29' E 005°15'1111.0
2016-Aug-20 04:33N 58°20' E 005°27'1211.5
2016-Aug-20 03:33N 58°13' E 005°44'1111.5
2016-Aug-20 02:33N 58°05' E 006°01'1211.5
2016-Aug-20 01:33N 57°58' E 006°17'1211.5
2016-Aug-20 00:32N 57°50' E 006°33'1111.1
2016-Aug-19 23:33N 57°47' E 006°53'1111.4
2016-Aug-19 22:33N 57°46' E 007°14'2511.3
2016-Aug-19 20:22N 57°48' E 008°00'911.4
2016-Aug-19 19:33N 57°51' E 008°17'7111.4
2016-Aug-19 13:18N 57°49' E 010°30'911.7
2016-Aug-19 12:33N 57°49' E 010°47'1111.4
2016-Aug-19 11:33N 57°44' E 011°06'1111.5
2016-Aug-19 10:34N 57°39' E 011°25'10 9.6
2016-Aug-19 09:33N 57°39' E 011°43'5 5.3
2016-Aug-19 08:33N 57°41' E 011°52'0 0.0
2016-Aug-19 07:31N 57°41' E 011°52'0 0.0
2016-Aug-19 06:31N 57°41' E 011°52'0 0.0
2016-Aug-19 05:31N 57°41' E 011°52'0 0.0
2016-Aug-19 04:31N 57°41' E 011°52'0 0.0
2016-Aug-19 03:31N 57°41' E 011°52'0 0.0
2016-Aug-19 02:31N 57°41' E 011°52'0 0.0
2016-Aug-19 01:31N 57°41' E 011°52'0 0.0
2016-Aug-19 00:31N 57°41' E 011°52'0 0.0
2016-Aug-18 23:31N 57°41' E 011°52'0 0.0
2016-Aug-18 22:31N 57°41' E 011°52'0 0.0
2016-Aug-18 21:31N 57°41' E 011°52'0 0.0
2016-Aug-18 20:31N 57°41' E 011°52'0 0.0
2016-Aug-18 19:31N 57°41' E 011°52'0 0.0
2016-Aug-18 18:31N 57°41' E 011°52'0 0.0
2016-Aug-18 17:31N 57°41' E 011°52'0 0.0
2016-Aug-18 16:31N 57°41' E 011°52'0 0.0
2016-Aug-18 15:31N 57°41' E 011°52'0 0.0
2016-Aug-18 14:31N 57°41' E 011°52'0 0.0
2016-Aug-18 13:31N 57°41' E 011°52'0 0.0
2016-Aug-18 12:31N 57°41' E 011°52'0 0.0
2016-Aug-18 11:31N 57°41' E 011°52'0 0.0
2016-Aug-18 10:31N 57°41' E 011°52'0 0.0
2016-Aug-18 09:31N 57°41' E 011°52'0 0.0
2016-Aug-18 08:34N 57°41' E 011°52'0 0.0
2016-Aug-18 07:33N 57°41' E 011°52'0 0.0
2016-Aug-18 06:33N 57°41' E 011°52'0 0.0
2016-Aug-18 05:33N 57°41' E 011°52'0 0.0
2016-Aug-18 04:33N 57°41' E 011°52'0 0.0
2016-Aug-18 03:33N 57°41' E 011°52'0 0.0
2016-Aug-18 02:33N 57°41' E 011°52'0 0.0
2016-Aug-18 01:33N 57°41' E 011°52'0 0.0
2016-Aug-18 00:33N 57°41' E 011°52'0 0.0
2016-Aug-17 23:33N 57°41' E 011°52'0 0.0
2016-Aug-17 22:33N 57°41' E 011°52'0 0.0
2016-Aug-17 21:33N 57°41' E 011°52'0 0.0
2016-Aug-17 20:33N 57°41' E 011°52'0 0.3
2016-Aug-17 19:34N 57°41' E 011°52'2 2.4
2016-Aug-17 18:33N 57°40' E 011°48'0 0.1
2016-Aug-17 17:33N 57°40' E 011°48'0 0.0
2016-Aug-17 16:33N 57°40' E 011°48'0 0.0
2016-Aug-17 15:33N 57°40' E 011°48'0 0.0
2016-Aug-17 14:33N 57°40' E 011°48'0 0.0
2016-Aug-17 13:33N 57°40' E 011°48'0 0.1
2016-Aug-17 12:33N 57°40' E 011°48'0 0.0
2016-Aug-17 11:33N 57°40' E 011°48'0 0.0
2016-Aug-17 10:33N 57°40' E 011°48'0 0.0
2016-Aug-17 09:33N 57°40' E 011°48'0 0.0
2016-Aug-17 08:33N 57°40' E 011°48'0 0.0
2016-Aug-17 07:33N 57°40' E 011°48'0 0.0
2016-Aug-17 06:33N 57°40' E 011°48'0 0.0
2016-Aug-17 05:33N 57°40' E 011°48'0 0.0
2016-Aug-17 04:33N 57°40' E 011°48'0 0.1
2016-Aug-17 03:33N 57°40' E 011°48'0 0.1
2016-Aug-17 02:33N 57°40' E 011°48'0 0.0
2016-Aug-17 01:33N 57°40' E 011°48'0 0.0
2016-Aug-17 00:33N 57°40' E 011°48'0 0.0
2016-Aug-16 23:30N 57°40' E 011°48'0 0.0
2016-Aug-16 22:33N 57°40' E 011°48'0 0.1
2016-Aug-16 21:33N 57°40' E 011°48'0 0.0
2016-Aug-16 20:32N 57°40' E 011°48'0 0.0
2016-Aug-16 19:32N 57°40' E 011°48'0 0.0
2016-Aug-16 18:32N 57°40' E 011°48'0 0.0
2016-Aug-16 17:32N 57°40' E 011°48'0 0.0
2016-Aug-16 16:32N 57°40' E 011°48'0 0.0
2016-Aug-16 15:33N 57°40' E 011°48'1 1.1
2016-Aug-16 14:33N 57°41' E 011°47'3 2.6
2016-Aug-16 13:33N 57°41' E 011°42'0 0.0
2016-Aug-16 12:33N 57°41' E 011°42'0 0.1
2016-Aug-16 11:33N 57°41' E 011°42'0 0.0
2016-Aug-16 10:33N 57°41' E 011°42'0 0.0
2016-Aug-16 09:33N 57°41' E 011°41'0 0.1
2016-Aug-16 08:33N 57°41' E 011°41'0 0.0
2016-Aug-16 07:33N 57°41' E 011°41'0 0.0
2016-Aug-16 04:33N 57°41' E 011°42'0 0.0
2016-Aug-16 03:33N 57°41' E 011°42'0 0.0
2016-Aug-16 02:33N 57°41' E 011°42'0 0.0
2016-Aug-16 01:33N 57°41' E 011°42'0 0.0
2016-Aug-16 00:30N 57°41' E 011°42'0 0.0
2016-Aug-15 23:33N 57°41' E 011°42'0 0.0
2016-Aug-15 22:33N 57°41' E 011°42'0 0.0
2016-Aug-15 21:33N 57°41' E 011°42'9 8.8
2016-Aug-15 20:33N 57°32' E 011°37'1211.8
2016-Aug-15 19:33N 57°21' E 011°36'1111.2
2016-Aug-15 18:33N 57°09' E 011°38'1111.6
2016-Aug-15 17:34N 56°59' E 011°45'1111.2
2016-Aug-15 16:33N 56°48' E 011°52'1110.9
2016-Aug-15 15:33N 56°38' E 011°46'1411.7
2016-Aug-15 14:20N 56°25' E 011°33'6410.3
2016-Aug-15 08:08N 55°24' E 011°01'610.7
2016-Aug-15 07:33N 55°18' E 011°03'1110.6
2016-Aug-15 06:34N 55°08' E 011°03'2211.1
2016-Aug-15 04:33N 54°46' E 010°53'1110.5
2016-Aug-15 03:33N 54°38' E 011°04'1111.4
2016-Aug-15 02:34N 54°33' E 011°22'1111.2
2016-Aug-15 01:33N 54°28' E 011°39'1111.2
2016-Aug-15 00:33N 54°27' E 011°58'9 9.4
2016-Aug-14 23:33N 54°31' E 012°12'10 9.8
2016-Aug-14 22:33N 54°40' E 012°21'3611.6
2016-Aug-14 19:26N 54°54' E 013°18'1011.3
2016-Aug-14 18:33N 54°58' E 013°34'1010.4
2016-Aug-14 17:33N 55°01' E 013°52'1110.7
2016-Aug-14 16:34N 55°07' E 014°08'1211.6
2016-Aug-14 15:33N 55°16' E 014°21'1111.4
2016-Aug-14 14:33N 55°25' E 014°33'1010.4
2016-Aug-14 13:34N 55°30' E 014°49'1111.5
2016-Aug-14 12:34N 55°36' E 015°06'  

Dump ship's entire track history